createdAt,value
2022-07-31T00:02:34.718Z,100.00
2022-07-31T00:05:22.406Z,100.00
2022-07-31T00:08:11.805Z,100.00
2022-07-31T00:11:01.041Z,100.00
2022-07-31T00:13:57.272Z,100.00
2022-07-31T00:16:45.585Z,100.00
2022-07-31T00:19:32.589Z,100.00
2022-07-31T00:22:19.471Z,100.00
2022-07-31T00:25:07.113Z,100.00
2022-07-31T00:27:56.460Z,100.00
2022-07-31T00:30:46.079Z,100.00
2022-07-31T00:33:35.244Z,100.00
2022-07-31T00:36:22.280Z,100.00
2022-07-31T00:39:17.390Z,100.00
2022-07-31T00:42:05.650Z,100.00
2022-07-31T00:44:52.663Z,100.00
2022-07-31T00:47:39.783Z,100.00
2022-07-31T00:50:26.856Z,100.00
2022-07-31T00:53:16.566Z,100.00
2022-07-31T00:56:04.177Z,100.00
2022-07-31T00:58:51.631Z,100.00
2022-07-31T01:01:43.213Z,100.00
2022-07-31T01:04:31.117Z,100.00
2022-07-31T01:07:18.342Z,100.00
2022-07-31T01:10:09.417Z,100.00
2022-07-31T01:13:02.306Z,100.00
2022-07-31T01:15:50.461Z,100.00
2022-07-31T01:18:41.636Z,100.00
2022-07-31T01:21:38.635Z,100.00
2022-07-31T01:25:03.210Z,100.00
2022-07-31T01:28:17.566Z,100.00
2022-07-31T01:31:31.679Z,100.00
2022-07-31T01:34:31.475Z,100.00
2022-07-31T01:37:27.635Z,100.00
2022-07-31T01:40:22.430Z,100.00
2022-07-31T01:43:17.387Z,100.00
2022-07-31T01:46:11.252Z,100.00
2022-07-31T01:48:58.308Z,100.00
2022-07-31T01:51:50.207Z,100.00
2022-07-31T01:54:44.317Z,100.00
2022-07-31T01:57:34.772Z,100.00
2022-07-31T02:00:28.651Z,100.00
2022-07-31T02:03:43.547Z,100.00
2022-07-31T02:06:31.883Z,100.00
2022-07-31T02:09:22.366Z,100.00
2022-07-31T02:12:12.007Z,100.00
2022-07-31T02:15:01.561Z,100.00
2022-07-31T02:17:50.144Z,100.00
2022-07-31T02:20:46.180Z,100.00
2022-07-31T02:23:34.435Z,100.00
2022-07-31T02:26:24.674Z,100.00
2022-07-31T02:29:19.836Z,100.00
2022-07-31T02:32:08.740Z,100.00
2022-07-31T02:34:36.285Z,100.00
2022-07-31T02:37:06.563Z,100.00
2022-07-31T02:39:36.975Z,100.00
2022-07-31T02:42:04.844Z,100.00
2022-07-31T02:44:34.723Z,100.00
2022-07-31T02:47:02.682Z,100.00
2022-07-31T02:49:30.545Z,100.00
2022-07-31T02:52:00.328Z,100.00
2022-07-31T02:54:27.283Z,100.00
2022-07-31T02:56:57.625Z,100.00
2022-07-31T02:59:27.014Z,100.00
2022-07-31T03:02:00.059Z,100.00
2022-07-31T03:04:29.925Z,100.00
2022-07-31T03:06:56.569Z,100.00
2022-07-31T03:09:23.174Z,100.00
2022-07-31T03:12:04.352Z,100.00
2022-07-31T03:14:34.245Z,100.00
2022-07-31T03:17:01.837Z,100.00
2022-07-31T03:19:28.930Z,100.00
2022-07-31T03:21:56.552Z,100.00
2022-07-31T03:24:24.585Z,100.00
2022-07-31T03:26:53.723Z,100.00
2022-07-31T03:29:41.138Z,100.00
2022-07-31T03:32:07.448Z,100.00
2022-07-31T03:34:37.429Z,100.00
2022-07-31T03:37:04.083Z,100.00
2022-07-31T03:39:31.515Z,100.00
2022-07-31T03:42:02.878Z,100.00
2022-07-31T03:44:31.759Z,100.00
2022-07-31T03:46:59.475Z,100.00
2022-07-31T03:49:32.672Z,100.00
2022-07-31T03:51:59.978Z,100.00
2022-07-31T03:54:29.253Z,100.00
2022-07-31T03:57:07.885Z,100.00
2022-07-31T03:59:38.551Z,100.00
2022-07-31T04:02:11.932Z,100.00
2022-07-31T04:04:46.285Z,100.00
2022-07-31T04:07:15.982Z,100.00
2022-07-31T04:09:42.772Z,100.00
2022-07-31T04:12:11.132Z,100.00
2022-07-31T04:14:40.071Z,100.00
2022-07-31T04:17:07.340Z,100.00
2022-07-31T04:19:36.232Z,100.00
2022-07-31T04:22:03.348Z,100.00
2022-07-31T04:24:31.332Z,100.00
2022-07-31T04:27:26.964Z,100.00
2022-07-31T04:29:53.960Z,100.00
2022-07-31T04:32:25.514Z,100.00
2022-07-31T04:35:01.422Z,100.00
2022-07-31T04:37:30.311Z,100.00
2022-07-31T04:39:58.238Z,100.00
2022-07-31T04:42:24.940Z,100.00
2022-07-31T04:44:54.103Z,100.00
2022-07-31T04:47:23.428Z,100.00
2022-07-31T04:49:53.964Z,100.00
2022-07-31T04:52:20.934Z,100.00
2022-07-31T04:54:49.748Z,100.00
2022-07-31T04:57:19.873Z,100.00
2022-07-31T04:59:57.961Z,100.00
2022-07-31T05:02:26.621Z,100.00
2022-07-31T05:04:57.242Z,100.00
2022-07-31T05:07:32.168Z,100.00
2022-07-31T05:10:05.524Z,100.00
2022-07-31T05:12:35.207Z,100.00
2022-07-31T05:15:01.828Z,100.00
2022-07-31T05:17:30.811Z,100.00
2022-07-31T05:20:22.427Z,100.00
2022-07-31T05:23:06.681Z,100.00
2022-07-31T05:25:51.989Z,100.00
2022-07-31T05:28:18.605Z,100.00
2022-07-31T05:30:59.519Z,100.00
2022-07-31T05:33:28.467Z,100.00
2022-07-31T05:35:56.355Z,100.00
2022-07-31T05:38:25.389Z,100.00
2022-07-31T05:41:15.598Z,100.00
2022-07-31T05:44:02.411Z,100.00
2022-07-31T05:46:45.120Z,100.00
2022-07-31T05:49:13.573Z,100.00
2022-07-31T05:51:45.489Z,100.00
2022-07-31T05:54:12.699Z,100.00
2022-07-31T05:56:57.993Z,100.00
2022-07-31T05:59:35.381Z,100.00
2022-07-31T06:02:05.379Z,100.00
2022-07-31T06:04:47.808Z,100.00
2022-07-31T06:07:14.719Z,100.00
2022-07-31T06:09:41.616Z,100.00
2022-07-31T06:12:10.664Z,100.00
2022-07-31T06:14:37.228Z,100.00
2022-07-31T06:17:07.407Z,100.00
2022-07-31T06:19:36.038Z,100.00
2022-07-31T06:22:04.258Z,100.00
2022-07-31T06:24:34.523Z,100.00
2022-07-31T06:27:02.459Z,100.00
2022-07-31T06:29:41.821Z,100.00
2022-07-31T06:32:11.958Z,100.00
2022-07-31T06:34:39.290Z,100.00
2022-07-31T06:37:06.234Z,100.00
2022-07-31T06:39:54.236Z,100.00
2022-07-31T06:42:40.377Z,100.00
2022-07-31T06:45:07.617Z,100.00
2022-07-31T06:47:52.391Z,100.00
2022-07-31T06:50:41.991Z,100.00
2022-07-31T06:53:31.571Z,100.00
2022-07-31T06:56:00.482Z,100.00
2022-07-31T06:58:27.076Z,100.00
2022-07-31T07:00:53.667Z,100.00
2022-07-31T07:03:20.260Z,100.00
2022-07-31T07:05:49.477Z,92.29
2022-07-31T07:08:18.209Z,87.92
2022-07-31T07:10:51.461Z,89.14
2022-07-31T07:13:45.991Z,84.71
2022-07-31T07:16:14.515Z,95.65
2022-07-31T07:18:41.074Z,100.00
2022-07-31T07:21:07.668Z,100.00
2022-07-31T07:23:35.578Z,100.00
2022-07-31T07:26:37.289Z,100.00
2022-07-31T07:29:04.324Z,100.00
2022-07-31T07:31:33.320Z,100.00
2022-07-31T07:34:02.542Z,83.38
2022-07-31T07:36:29.123Z,80.83
2022-07-31T07:38:59.265Z,74.90
2022-07-31T07:41:26.397Z,66.74
2022-07-31T07:43:53.924Z,57.32
2022-07-31T07:46:23.966Z,59.59
2022-07-31T07:48:56.615Z,59.18
2022-07-31T07:51:59.286Z,56.31
2022-07-31T07:54:32.943Z,50.40
2022-07-31T07:57:22.795Z,47.55
2022-07-31T08:00:11.933Z,43.97
2022-07-31T08:03:46.622Z,44.35
2022-07-31T08:05:40.125Z,44.83
2022-07-31T08:08:06.724Z,44.12
2022-07-31T08:10:48.573Z,43.40
2022-07-31T08:13:21.326Z,40.90
2022-07-31T08:16:13.971Z,49.46
2022-07-31T08:18:48.472Z,48.64
2022-07-31T08:21:18.912Z,51.33
2022-07-31T08:23:47.337Z,54.58
2022-07-31T08:26:18.231Z,55.93
2022-07-31T08:28:49.824Z,47.34
2022-07-31T08:31:20.551Z,33.56
2022-07-31T08:34:00.956Z,51.91
2022-07-31T08:36:30.115Z,40.15
2022-07-31T08:38:59.316Z,39.60
2022-07-31T08:41:43.124Z,38.81
2022-07-31T08:44:17.973Z,38.51
2022-07-31T08:46:56.695Z,32.35
2022-07-31T08:49:27.994Z,33.53
2022-07-31T08:51:59.321Z,30.27
2022-07-31T08:54:42.011Z,35.06
2022-07-31T08:57:13.115Z,33.14
2022-07-31T08:59:43.919Z,28.95
2022-07-31T09:02:13.532Z,31.30
2022-07-31T09:04:57.102Z,30.64
2022-07-31T09:07:26.568Z,24.28
2022-07-31T09:09:53.161Z,32.72
2022-07-31T09:12:34.036Z,27.72
2022-07-31T09:15:20.431Z,25.12
2022-07-31T09:17:53.900Z,27.85
2022-07-31T09:20:23.281Z,25.50
2022-07-31T09:23:06.700Z,19.49
2022-07-31T09:25:35.295Z,24.56
2022-07-31T09:28:06.215Z,23.15
2022-07-31T09:30:34.216Z,23.68
2022-07-31T09:33:30.811Z,22.96
2022-07-31T09:36:00.928Z,23.53
2022-07-31T09:38:38.621Z,19.30
2022-07-31T09:42:00.954Z,25.14
2022-07-31T09:44:18.637Z,22.69
2022-07-31T09:46:52.151Z,20.57
2022-07-31T09:49:18.780Z,20.32
2022-07-31T09:51:48.986Z,18.62
2022-07-31T09:54:31.378Z,14.88
2022-07-31T09:56:58.089Z,18.16
2022-07-31T09:59:31.160Z,17.87
2022-07-31T10:02:00.833Z,17.94
2022-07-31T10:04:30.359Z,19.46
2022-07-31T10:06:57.250Z,21.10
2022-07-31T10:09:25.571Z,21.52
2022-07-31T10:12:02.663Z,27.55
2022-07-31T10:14:40.182Z,29.06
2022-07-31T10:17:10.733Z,22.80
2022-07-31T10:19:47.412Z,17.80
2022-07-31T10:22:44.079Z,18.05
2022-07-31T10:25:21.959Z,16.41
2022-07-31T10:27:53.990Z,23.80
2022-07-31T10:30:26.045Z,25.88
2022-07-31T10:32:58.706Z,21.93
2022-07-31T10:35:26.779Z,18.32
2022-07-31T10:38:28.976Z,22.02
2022-07-31T10:41:12.500Z,20.54
2022-07-31T10:43:48.048Z,20.94
2022-07-31T10:46:36.869Z,23.50
2022-07-31T10:49:43.444Z,21.96
2022-07-31T10:52:34.524Z,26.78
2022-07-31T10:55:19.237Z,30.26
2022-07-31T10:58:10.232Z,31.04
2022-07-31T11:00:53.668Z,32.23
2022-07-31T11:04:04.719Z,34.10
2022-07-31T11:06:48.597Z,34.92
2022-07-31T11:09:50.339Z,35.39
2022-07-31T11:12:59.362Z,35.37
2022-07-31T11:16:05.390Z,34.83
2022-07-31T11:19:01.888Z,34.52
2022-07-31T11:21:39.348Z,35.10
2022-07-31T11:24:21.234Z,33.44
2022-07-31T11:26:52.802Z,33.73
2022-07-31T11:30:01.551Z,34.04
2022-07-31T11:32:25.875Z,34.82
2022-07-31T11:34:55.435Z,35.56
2022-07-31T11:37:46.537Z,36.22
2022-07-31T11:40:14.987Z,36.04
2022-07-31T11:42:46.122Z,36.39
2022-07-31T11:45:15.127Z,36.22
2022-07-31T11:48:11.914Z,37.00
2022-07-31T11:50:40.620Z,38.08
2022-07-31T11:53:07.405Z,37.87
2022-07-31T11:56:04.224Z,39.31
2022-07-31T11:58:30.862Z,40.38
2022-07-31T12:01:00.854Z,40.53
2022-07-31T12:03:35.259Z,40.31
2022-07-31T12:06:05.383Z,39.96
2022-07-31T12:08:32.837Z,40.36
2022-07-31T12:11:01.292Z,39.79
2022-07-31T12:13:31.380Z,38.79
2022-07-31T12:16:09.702Z,38.43
2022-07-31T12:18:59.388Z,38.30
2022-07-31T12:21:37.829Z,38.62
2022-07-31T12:24:12.834Z,39.16
2022-07-31T12:26:47.545Z,38.26
2022-07-31T12:29:14.250Z,38.88
2022-07-31T12:31:49.247Z,37.62
2022-07-31T12:34:25.785Z,37.86
2022-07-31T12:37:05.590Z,37.38
2022-07-31T12:40:01.004Z,37.01
2022-07-31T12:42:31.241Z,37.73
2022-07-31T12:45:19.832Z,37.46
2022-07-31T12:47:52.426Z,39.34
2022-07-31T12:50:20.587Z,38.99
2022-07-31T12:52:47.172Z,38.43
2022-07-31T12:55:14.225Z,38.99
2022-07-31T12:57:50.263Z,37.90
2022-07-31T13:00:19.499Z,37.29
2022-07-31T13:02:49.049Z,37.65
2022-07-31T13:05:20.488Z,38.35
2022-07-31T13:07:47.431Z,38.74
2022-07-31T13:10:19.981Z,38.90
2022-07-31T13:12:50.333Z,38.64
2022-07-31T13:15:18.020Z,38.88
2022-07-31T13:17:50.434Z,39.70
2022-07-31T13:20:17.180Z,39.05
2022-07-31T13:22:43.767Z,37.92
2022-07-31T13:25:10.350Z,37.78
2022-07-31T13:27:36.979Z,37.57
2022-07-31T13:30:04.509Z,38.25
2022-07-31T13:32:31.753Z,37.82
2022-07-31T13:35:19.735Z,36.79
2022-07-31T13:37:46.553Z,36.90
2022-07-31T13:40:13.834Z,37.94
2022-07-31T13:42:40.492Z,37.49
2022-07-31T13:45:10.436Z,37.86
2022-07-31T13:47:51.406Z,38.26
2022-07-31T13:50:19.250Z,38.12
2022-07-31T13:52:45.979Z,38.33
2022-07-31T13:55:12.579Z,38.44
2022-07-31T13:57:39.179Z,38.67
2022-07-31T14:00:08.993Z,39.20
2022-07-31T14:02:36.769Z,39.69
2022-07-31T14:05:06.300Z,38.67
2022-07-31T14:07:48.016Z,39.10
2022-07-31T14:10:20.636Z,40.26
2022-07-31T14:12:50.203Z,41.15
2022-07-31T14:15:18.188Z,41.41
2022-07-31T14:17:44.932Z,40.99
2022-07-31T14:20:12.115Z,40.76
2022-07-31T14:22:38.821Z,40.57
2022-07-31T14:25:05.570Z,40.63
2022-07-31T14:27:32.299Z,41.70
2022-07-31T14:29:59.023Z,43.17
2022-07-31T14:32:25.800Z,44.59
2022-07-31T14:34:52.569Z,45.20
2022-07-31T14:37:20.492Z,45.39
2022-07-31T14:39:47.438Z,44.83
2022-07-31T14:42:14.279Z,44.90
2022-07-31T14:44:42.337Z,45.30
2022-07-31T14:47:13.180Z,45.22
2022-07-31T14:50:08.882Z,46.18
2022-07-31T14:52:27.856Z,46.13
2022-07-31T14:54:54.884Z,46.53
2022-07-31T14:57:22.414Z,46.60
2022-07-31T14:59:50.374Z,47.32
2022-07-31T15:02:22.198Z,47.12
2022-07-31T15:04:50.110Z,46.38
2022-07-31T15:07:43.793Z,45.60
2022-07-31T15:10:10.849Z,45.62
2022-07-31T15:12:37.778Z,45.17
2022-07-31T15:15:07.359Z,45.25
2022-07-31T15:17:36.494Z,46.50
2022-07-31T15:20:03.969Z,46.38
2022-07-31T15:22:30.733Z,46.37
2022-07-31T15:24:59.662Z,46.43
2022-07-31T15:27:26.266Z,45.68
2022-07-31T15:30:04.839Z,45.08
2022-07-31T15:32:36.925Z,44.94
2022-07-31T15:35:04.893Z,44.41
2022-07-31T15:37:34.956Z,44.41
2022-07-31T15:40:03.820Z,43.59
2022-07-31T15:42:38.219Z,43.61
2022-07-31T15:45:13.177Z,44.64
2022-07-31T15:47:40.558Z,43.86
2022-07-31T15:50:11.419Z,44.20
2022-07-31T15:52:38.024Z,44.66
2022-07-31T15:55:06.147Z,45.88
2022-07-31T15:57:33.219Z,47.78
2022-07-31T16:00:00.271Z,47.20
2022-07-31T16:02:27.191Z,46.90
2022-07-31T16:05:11.027Z,46.62
2022-07-31T16:08:28.799Z,46.29
2022-07-31T16:10:27.967Z,45.99
2022-07-31T16:12:57.115Z,46.16
2022-07-31T16:15:23.914Z,46.08
2022-07-31T16:17:53.097Z,46.07
2022-07-31T16:20:26.580Z,45.92
2022-07-31T16:23:02.365Z,45.87
2022-07-31T16:25:32.176Z,45.78
2022-07-31T16:28:02.287Z,45.52
2022-07-31T16:30:33.234Z,45.84
2022-07-31T16:32:59.790Z,46.60
2022-07-31T16:35:26.548Z,46.33
2022-07-31T16:37:54.206Z,46.27
2022-07-31T16:40:29.789Z,47.33
2022-07-31T16:43:47.929Z,47.53
2022-07-31T16:45:52.509Z,46.75
2022-07-31T16:48:21.497Z,46.34
2022-07-31T16:50:53.350Z,46.33
2022-07-31T16:54:13.050Z,46.50
2022-07-31T16:56:14.327Z,46.35
2022-07-31T16:58:44.043Z,47.27
2022-07-31T17:01:57.811Z,47.24
2022-07-31T17:04:04.024Z,46.71
2022-07-31T17:06:37.889Z,47.16
2022-07-31T17:09:17.077Z,47.29
2022-07-31T17:11:49.934Z,47.64
2022-07-31T17:14:18.267Z,47.50
2022-07-31T17:16:49.379Z,47.34
2022-07-31T17:19:36.107Z,47.75
2022-07-31T17:22:11.243Z,47.81
2022-07-31T17:24:38.390Z,48.86
2022-07-31T17:27:09.434Z,48.61
2022-07-31T17:29:38.327Z,49.67
2022-07-31T17:32:05.640Z,49.40
2022-07-31T17:34:32.267Z,49.39
2022-07-31T17:36:58.836Z,50.13
2022-07-31T17:39:30.201Z,50.41
2022-07-31T17:41:57.405Z,50.64
2022-07-31T17:44:26.390Z,49.82
2022-07-31T17:47:03.379Z,50.28
2022-07-31T17:49:31.849Z,50.18
2022-07-31T17:52:00.010Z,50.72
2022-07-31T17:54:31.305Z,51.51
2022-07-31T17:56:59.118Z,55.18
2022-07-31T17:59:26.266Z,55.18
2022-07-31T18:01:59.411Z,58.69
2022-07-31T18:04:27.448Z,61.28
2022-07-31T18:06:54.950Z,59.42
2022-07-31T18:09:24.932Z,58.21
2022-07-31T18:11:53.332Z,59.75
2022-07-31T18:14:20.299Z,61.73
2022-07-31T18:16:47.353Z,62.12
2022-07-31T18:19:16.896Z,62.97
2022-07-31T18:21:45.472Z,64.24
2022-07-31T18:24:12.059Z,66.73
2022-07-31T18:26:38.611Z,67.47
2022-07-31T18:29:05.243Z,67.04
2022-07-31T18:31:35.179Z,71.35
2022-07-31T18:34:04.371Z,70.69
2022-07-31T18:36:32.225Z,69.87
2022-07-31T18:38:58.917Z,74.33
2022-07-31T18:41:27.945Z,72.53
2022-07-31T18:43:54.645Z,70.83
2022-07-31T18:46:24.617Z,69.23
2022-07-31T18:48:56.005Z,68.18
2022-07-31T18:51:24.835Z,68.40
2022-07-31T18:53:51.792Z,69.13
2022-07-31T18:56:27.259Z,70.01
2022-07-31T18:58:56.305Z,70.73
2022-07-31T19:01:23.634Z,72.14
2022-07-31T19:03:50.482Z,71.77
2022-07-31T19:06:17.450Z,72.30
2022-07-31T19:08:49.257Z,73.98
2022-07-31T19:11:15.816Z,74.21
2022-07-31T19:13:46.032Z,74.91
2022-07-31T19:16:12.814Z,75.15
2022-07-31T19:18:44.907Z,74.66
2022-07-31T19:21:23.356Z,74.65
2022-07-31T19:24:00.202Z,75.61
2022-07-31T19:26:29.171Z,77.65
2022-07-31T19:28:56.565Z,77.78
2022-07-31T19:31:24.105Z,79.24
2022-07-31T19:33:52.958Z,80.00
2022-07-31T19:36:26.343Z,80.86
2022-07-31T19:38:52.937Z,81.38
2022-07-31T19:41:20.808Z,82.35
2022-07-31T19:43:49.942Z,83.54
2022-07-31T19:46:16.843Z,83.79
2022-07-31T19:48:46.028Z,85.09
2022-07-31T19:51:14.444Z,85.70
2022-07-31T19:53:41.765Z,87.86
2022-07-31T19:56:09.431Z,88.69
2022-07-31T19:58:37.179Z,90.98
2022-07-31T20:01:05.738Z,93.21
2022-07-31T20:03:32.775Z,92.90
2022-07-31T20:05:59.503Z,92.63
2022-07-31T20:08:29.699Z,92.73
2022-07-31T20:11:02.843Z,92.95
2022-07-31T20:13:30.375Z,93.13
2022-07-31T20:16:00.928Z,94.31
2022-07-31T20:18:28.842Z,94.14
2022-07-31T20:20:57.962Z,93.95
2022-07-31T20:23:27.944Z,94.39
2022-07-31T20:25:55.022Z,94.42
2022-07-31T20:28:24.085Z,95.03
2022-07-31T20:30:50.700Z,95.58
2022-07-31T20:33:17.488Z,96.34
2022-07-31T20:35:48.838Z,97.41
2022-07-31T20:38:18.071Z,97.19
2022-07-31T20:40:53.063Z,97.67
2022-07-31T20:43:31.155Z,100.00
2022-07-31T20:45:58.996Z,99.28
2022-07-31T20:48:35.082Z,99.72
2022-07-31T20:51:05.143Z,99.65
2022-07-31T20:53:34.185Z,99.33
2022-07-31T20:56:03.390Z,98.99
2022-07-31T20:58:32.994Z,100.00
2022-07-31T21:00:59.607Z,99.57
2022-07-31T21:03:28.995Z,100.00
2022-07-31T21:06:14.566Z,100.00
2022-07-31T21:09:04.933Z,100.00
2022-07-31T21:11:51.940Z,100.00
2022-07-31T21:14:39.199Z,100.00
2022-07-31T21:17:28.419Z,100.00
2022-07-31T21:20:15.785Z,100.00
2022-07-31T21:23:04.389Z,100.00
2022-07-31T21:25:56.487Z,100.00
2022-07-31T21:28:46.445Z,100.00
2022-07-31T21:31:33.602Z,100.00
2022-07-31T21:34:20.576Z,100.00
2022-07-31T21:37:16.133Z,100.00
2022-07-31T21:40:06.702Z,100.00
2022-07-31T21:42:58.688Z,100.00
2022-07-31T21:45:55.635Z,100.00
2022-07-31T21:48:48.284Z,100.00
2022-07-31T21:51:35.380Z,100.00
2022-07-31T21:54:22.266Z,100.00
2022-07-31T21:57:09.130Z,100.00
2022-07-31T21:59:55.977Z,100.00
2022-07-31T22:02:42.894Z,100.00
2022-07-31T22:05:49.010Z,100.00
2022-07-31T22:08:38.218Z,100.00
2022-07-31T22:11:25.196Z,100.00
2022-07-31T22:14:14.276Z,100.00
2022-07-31T22:17:01.284Z,100.00
2022-07-31T22:19:58.168Z,100.00
2022-07-31T22:22:47.705Z,100.00
2022-07-31T22:25:34.864Z,100.00
2022-07-31T22:28:25.732Z,100.00
2022-07-31T22:31:12.796Z,100.00
2022-07-31T22:33:59.727Z,100.00
2022-07-31T22:36:46.637Z,100.00
2022-07-31T22:39:34.815Z,100.00
2022-07-31T22:42:21.807Z,100.00
2022-07-31T22:45:11.978Z,100.00
2022-07-31T22:48:04.051Z,100.00
2022-07-31T22:50:51.111Z,100.00
2022-07-31T22:53:37.971Z,100.00
2022-07-31T22:56:24.836Z,100.00
2022-07-31T22:59:11.711Z,100.00
2022-07-31T23:01:59.675Z,100.00
2022-07-31T23:04:51.353Z,100.00
2022-07-31T23:07:38.541Z,100.00
2022-07-31T23:10:25.619Z,100.00
2022-07-31T23:13:12.503Z,100.00
2022-07-31T23:15:59.606Z,100.00
2022-07-31T23:18:48.932Z,100.00
2022-07-31T23:21:35.825Z,100.00
2022-07-31T23:24:22.685Z,100.00
2022-07-31T23:27:09.625Z,100.00
2022-07-31T23:29:58.569Z,100.00
2022-07-31T23:32:45.407Z,100.00
2022-07-31T23:35:32.281Z,100.00
2022-07-31T23:38:21.280Z,100.00
2022-07-31T23:41:08.892Z,100.00
2022-07-31T23:43:55.768Z,100.00
2022-07-31T23:46:42.677Z,100.00
2022-07-31T23:49:31.956Z,100.00
2022-07-31T23:52:18.884Z,100.00
2022-07-31T23:55:08.391Z,100.00
2022-07-31T23:58:00.062Z,100.00
